sensor_id;sensor_type;location;lat;lon;timestamp;P1;durP1;ratioP1;P2;durP2;ratioP2
41677;SDS011;27364;49.026;8.712;2022-11-15T00:01:51;7.40;;;5.30;;
41677;SDS011;27364;49.026;8.712;2022-11-15T00:04:17;8.73;;;5.30;;
41677;SDS011;27364;49.026;8.712;2022-11-15T00:06:42;7.30;;;5.10;;
41677;SDS011;27364;49.026;8.712;2022-11-15T00:09:08;8.98;;;5.00;;
41677;SDS011;27364;49.026;8.712;2022-11-15T00:11:34;9.27;;;5.72;;
41677;SDS011;27364;49.026;8.712;2022-11-15T00:13:59;9.65;;;5.35;;
41677;SDS011;27364;49.026;8.712;2022-11-15T00:16:27;9.60;;;5.10;;
41677;SDS011;27364;49.026;8.712;2022-11-15T00:18:52;7.35;;;5.18;;
41677;SDS011;27364;49.026;8.712;2022-11-15T00:21:18;7.70;;;5.43;;
41677;SDS011;27364;49.026;8.712;2022-11-15T00:23:44;8.25;;;5.25;;
41677;SDS011;27364;49.026;8.712;2022-11-15T00:26:11;8.13;;;5.43;;
41677;SDS011;27364;49.026;8.712;2022-11-15T00:28:37;8.07;;;5.50;;
41677;SDS011;27364;49.026;8.712;2022-11-15T00:31:04;8.45;;;5.88;;
41677;SDS011;27364;49.026;8.712;2022-11-15T00:36:03;7.57;;;5.50;;
41677;SDS011;27364;49.026;8.712;2022-11-15T00:38:34;9.55;;;6.22;;
41677;SDS011;27364;49.026;8.712;2022-11-15T00:41:01;8.68;;;6.10;;
41677;SDS011;27364;49.026;8.712;2022-11-15T00:43:27;8.88;;;5.93;;
41677;SDS011;27364;49.026;8.712;2022-11-15T00:45:53;11.00;;;6.13;;
41677;SDS011;27364;49.026;8.712;2022-11-15T00:48:18;9.25;;;6.00;;
41677;SDS011;27364;49.026;8.712;2022-11-15T00:50:44;7.30;;;5.35;;
41677;SDS011;27364;49.026;8.712;2022-11-15T00:53:10;8.93;;;5.78;;
41677;SDS011;27364;49.026;8.712;2022-11-15T00:55:35;9.23;;;6.03;;
41677;SDS011;27364;49.026;8.712;2022-11-15T00:58:01;9.52;;;5.88;;
41677;SDS011;27364;49.026;8.712;2022-11-15T01:00:26;11.05;;;6.70;;
41677;SDS011;27364;49.026;8.712;2022-11-15T01:02:52;9.02;;;5.95;;
41677;SDS011;27364;49.026;8.712;2022-11-15T01:05:18;9.63;;;5.50;;
41677;SDS011;27364;49.026;8.712;2022-11-15T01:07:43;7.85;;;5.25;;
41677;SDS011;27364;49.026;8.712;2022-11-15T01:10:09;7.90;;;5.53;;
41677;SDS011;27364;49.026;8.712;2022-11-15T01:12:34;8.23;;;5.25;;
41677;SDS011;27364;49.026;8.712;2022-11-15T01:15:00;8.60;;;5.72;;
41677;SDS011;27364;49.026;8.712;2022-11-15T01:17:25;7.82;;;5.35;;
41677;SDS011;27364;49.026;8.712;2022-11-15T01:19:51;9.10;;;5.43;;
41677;SDS011;27364;49.026;8.712;2022-11-15T01:22:17;7.53;;;5.38;;
41677;SDS011;27364;49.026;8.712;2022-11-15T01:24:42;10.98;;;6.57;;
41677;SDS011;27364;49.026;8.712;2022-11-15T01:27:08;8.70;;;6.43;;
41677;SDS011;27364;49.026;8.712;2022-11-15T01:29:34;10.32;;;5.55;;
41677;SDS011;27364;49.026;8.712;2022-11-15T01:32:00;8.63;;;5.63;;
41677;SDS011;27364;49.026;8.712;2022-11-15T01:34:25;11.07;;;5.93;;
41677;SDS011;27364;49.026;8.712;2022-11-15T01:36:51;7.13;;;5.28;;
41677;SDS011;27364;49.026;8.712;2022-11-15T01:39:16;8.02;;;5.47;;
41677;SDS011;27364;49.026;8.712;2022-11-15T01:41:42;8.20;;;5.55;;
41677;SDS011;27364;49.026;8.712;2022-11-15T01:46:55;9.35;;;5.53;;
41677;SDS011;27364;49.026;8.712;2022-11-15T01:49:22;7.90;;;5.60;;
41677;SDS011;27364;49.026;8.712;2022-11-15T01:51:50;8.43;;;5.63;;
41677;SDS011;27364;49.026;8.712;2022-11-15T01:54:17;8.88;;;5.35;;
41677;SDS011;27364;49.026;8.712;2022-11-15T01:56:47;8.57;;;6.05;;
41677;SDS011;27364;49.026;8.712;2022-11-15T01:59:19;8.10;;;5.35;;
41677;SDS011;27364;49.026;8.712;2022-11-15T02:01:45;9.77;;;5.60;;
41677;SDS011;27364;49.026;8.712;2022-11-15T02:06:38;8.20;;;5.13;;
41677;SDS011;27364;49.026;8.712;2022-11-15T02:09:05;7.00;;;5.43;;
41677;SDS011;27364;49.026;8.712;2022-11-15T02:11:31;8.68;;;5.43;;
41677;SDS011;27364;49.026;8.712;2022-11-15T02:13:56;8.70;;;5.30;;
41677;SDS011;27364;49.026;8.712;2022-11-15T02:16:27;7.85;;;5.18;;
41677;SDS011;27364;49.026;8.712;2022-11-15T02:19:15;8.93;;;5.22;;
41677;SDS011;27364;49.026;8.712;2022-11-15T02:28:16;8.10;;;5.30;;
41677;SDS011;27364;49.026;8.712;2022-11-15T02:33:33;8.13;;;5.07;;
41677;SDS011;27364;49.026;8.712;2022-11-15T02:36:12;9.43;;;4.80;;
41677;SDS011;27364;49.026;8.712;2022-11-15T02:38:46;6.57;;;4.75;;
41677;SDS011;27364;49.026;8.712;2022-11-15T02:41:30;7.25;;;5.05;;
41677;SDS011;27364;49.026;8.712;2022-11-15T02:44:02;8.38;;;4.68;;
41677;SDS011;27364;49.026;8.712;2022-11-15T02:49:37;7.55;;;4.70;;
41677;SDS011;27364;49.026;8.712;2022-11-15T02:52:06;7.45;;;4.53;;
41677;SDS011;27364;49.026;8.712;2022-11-15T02:54:32;7.47;;;4.25;;
41677;SDS011;27364;49.026;8.712;2022-11-15T02:57:05;5.93;;;4.22;;
41677;SDS011;27364;49.026;8.712;2022-11-15T03:00:14;7.90;;;4.68;;
41677;SDS011;27364;49.026;8.712;2022-11-15T03:13:26;7.35;;;4.40;;
41677;SDS011;27364;49.026;8.712;2022-11-15T03:18:41;7.38;;;4.43;;
41677;SDS011;27364;49.026;8.712;2022-11-15T03:21:08;6.75;;;4.50;;
41677;SDS011;27364;49.026;8.712;2022-11-15T03:23:36;9.63;;;4.57;;
41677;SDS011;27364;49.026;8.712;2022-11-15T03:26:03;7.60;;;4.70;;
41677;SDS011;27364;49.026;8.712;2022-11-15T03:31:22;7.32;;;4.15;;
41677;SDS011;27364;49.026;8.712;2022-11-15T03:34:11;7.47;;;4.50;;
41677;SDS011;27364;49.026;8.712;2022-11-15T03:36:44;8.10;;;4.93;;
41677;SDS011;27364;49.026;8.712;2022-11-15T03:39:11;7.63;;;4.47;;
41677;SDS011;27364;49.026;8.712;2022-11-15T03:41:49;7.05;;;4.53;;
41677;SDS011;27364;49.026;8.712;2022-11-15T03:44:19;7.13;;;4.32;;
41677;SDS011;27364;49.026;8.712;2022-11-15T03:49:36;7.75;;;4.50;;
41677;SDS011;27364;49.026;8.712;2022-11-15T03:52:06;9.13;;;4.05;;
41677;SDS011;27364;49.026;8.712;2022-11-15T03:54:32;7.03;;;4.20;;
41677;SDS011;27364;49.026;8.712;2022-11-15T03:56:57;6.75;;;4.13;;
41677;SDS011;27364;49.026;8.712;2022-11-15T03:59:23;6.97;;;4.65;;
41677;SDS011;27364;49.026;8.712;2022-11-15T04:01:48;8.00;;;4.00;;
41677;SDS011;27364;49.026;8.712;2022-11-15T04:04:14;6.22;;;4.20;;
41677;SDS011;27364;49.026;8.712;2022-11-15T04:06:39;6.72;;;4.10;;
41677;SDS011;27364;49.026;8.712;2022-11-15T04:09:05;6.10;;;4.28;;
41677;SDS011;27364;49.026;8.712;2022-11-15T04:11:30;7.50;;;4.18;;
41677;SDS011;27364;49.026;8.712;2022-11-15T04:13:56;8.98;;;4.63;;
41677;SDS011;27364;49.026;8.712;2022-11-15T04:16:21;6.53;;;4.25;;
41677;SDS011;27364;49.026;8.712;2022-11-15T04:18:47;6.38;;;4.10;;
41677;SDS011;27364;49.026;8.712;2022-11-15T04:21:32;8.90;;;4.07;;
41677;SDS011;27364;49.026;8.712;2022-11-15T04:24:16;7.32;;;4.40;;
41677;SDS011;27364;49.026;8.712;2022-11-15T04:26:42;6.78;;;4.40;;
41677;SDS011;27364;49.026;8.712;2022-11-15T04:29:08;6.10;;;4.00;;
41677;SDS011;27364;49.026;8.712;2022-11-15T04:31:52;7.05;;;4.50;;
41677;SDS011;27364;49.026;8.712;2022-11-15T04:34:17;5.63;;;4.15;;
41677;SDS011;27364;49.026;8.712;2022-11-15T04:36:43;10.40;;;4.05;;
41677;SDS011;27364;49.026;8.712;2022-11-15T04:39:27;6.18;;;3.88;;
41677;SDS011;27364;49.026;8.712;2022-11-15T04:41:52;7.28;;;4.10;;
41677;SDS011;27364;49.026;8.712;2022-11-15T04:44:18;7.13;;;4.35;;
41677;SDS011;27364;49.026;8.712;2022-11-15T04:46:43;8.40;;;3.85;;
41677;SDS011;27364;49.026;8.712;2022-11-15T04:49:09;8.35;;;3.85;;
41677;SDS011;27364;49.026;8.712;2022-11-15T04:51:34;6.32;;;4.22;;
41677;SDS011;27364;49.026;8.712;2022-11-15T04:54:00;5.13;;;3.67;;
41677;SDS011;27364;49.026;8.712;2022-11-15T04:56:25;5.65;;;3.88;;
41677;SDS011;27364;49.026;8.712;2022-11-15T04:58:51;5.70;;;3.67;;
41677;SDS011;27364;49.026;8.712;2022-11-15T05:01:16;7.50;;;3.83;;
41677;SDS011;27364;49.026;8.712;2022-11-15T05:03:43;6.45;;;3.78;;
41677;SDS011;27364;49.026;8.712;2022-11-15T05:06:28;6.15;;;3.80;;
41677;SDS011;27364;49.026;8.712;2022-11-15T05:08:54;6.55;;;3.83;;
41677;SDS011;27364;49.026;8.712;2022-11-15T05:11:20;6.78;;;3.80;;
41677;SDS011;27364;49.026;8.712;2022-11-15T05:13:46;5.85;;;3.60;;
41677;SDS011;27364;49.026;8.712;2022-11-15T05:16:11;7.03;;;3.80;;
41677;SDS011;27364;49.026;8.712;2022-11-15T05:18:37;7.28;;;3.88;;
41677;SDS011;27364;49.026;8.712;2022-11-15T05:21:09;6.20;;;4.30;;
41677;SDS011;27364;49.026;8.712;2022-11-15T05:23:37;6.57;;;3.97;;
41677;SDS011;27364;49.026;8.712;2022-11-15T05:26:03;7.03;;;4.30;;
41677;SDS011;27364;49.026;8.712;2022-11-15T05:28:31;6.80;;;4.00;;
41677;SDS011;27364;49.026;8.712;2022-11-15T05:31:04;7.57;;;4.25;;
41677;SDS011;27364;49.026;8.712;2022-11-15T05:33:35;7.22;;;4.20;;
41677;SDS011;27364;49.026;8.712;2022-11-15T05:36:03;6.90;;;4.40;;
41677;SDS011;27364;49.026;8.712;2022-11-15T05:38:34;7.05;;;3.85;;
41677;SDS011;27364;49.026;8.712;2022-11-15T05:41:00;8.27;;;4.03;;
41677;SDS011;27364;49.026;8.712;2022-11-15T05:43:27;5.03;;;3.65;;
41677;SDS011;27364;49.026;8.712;2022-11-15T05:45:56;9.20;;;4.68;;
41677;SDS011;27364;49.026;8.712;2022-11-15T05:48:23;6.60;;;4.28;;
41677;SDS011;27364;49.026;8.712;2022-11-15T05:50:49;6.00;;;4.28;;
41677;SDS011;27364;49.026;8.712;2022-11-15T05:53:15;8.63;;;4.00;;
41677;SDS011;27364;49.026;8.712;2022-11-15T05:55:44;5.72;;;3.90;;
41677;SDS011;27364;49.026;8.712;2022-11-15T05:58:10;6.53;;;4.38;;
41677;SDS011;27364;49.026;8.712;2022-11-15T06:00:35;5.25;;;3.78;;
41677;SDS011;27364;49.026;8.712;2022-11-15T06:03:01;6.38;;;3.88;;
41677;SDS011;27364;49.026;8.712;2022-11-15T06:05:27;8.88;;;4.35;;
41677;SDS011;27364;49.026;8.712;2022-11-15T06:07:52;7.72;;;3.92;;
41677;SDS011;27364;49.026;8.712;2022-11-15T06:10:21;7.60;;;4.20;;
41677;SDS011;27364;49.026;8.712;2022-11-15T06:12:47;6.18;;;3.90;;
41677;SDS011;27364;49.026;8.712;2022-11-15T06:15:24;9.48;;;4.93;;
41677;SDS011;27364;49.026;8.712;2022-11-15T06:17:50;8.63;;;5.10;;
41677;SDS011;27364;49.026;8.712;2022-11-15T06:20:15;6.53;;;4.38;;
41677;SDS011;27364;49.026;8.712;2022-11-15T06:22:41;7.63;;;5.05;;
41677;SDS011;27364;49.026;8.712;2022-11-15T06:25:06;11.05;;;5.50;;
41677;SDS011;27364;49.026;8.712;2022-11-15T06:27:32;9.90;;;5.10;;
41677;SDS011;27364;49.026;8.712;2022-11-15T06:29:57;9.20;;;4.93;;
41677;SDS011;27364;49.026;8.712;2022-11-15T06:32:23;5.70;;;4.00;;
41677;SDS011;27364;49.026;8.712;2022-11-15T06:34:48;12.68;;;4.85;;
41677;SDS011;27364;49.026;8.712;2022-11-15T06:37:14;7.57;;;5.03;;
41677;SDS011;27364;49.026;8.712;2022-11-15T06:39:40;9.80;;;5.53;;
41677;SDS011;27364;49.026;8.712;2022-11-15T06:42:05;9.38;;;4.90;;
41677;SDS011;27364;49.026;8.712;2022-11-15T06:44:32;8.73;;;4.43;;
41677;SDS011;27364;49.026;8.712;2022-11-15T06:46:58;6.57;;;4.60;;
41677;SDS011;27364;49.026;8.712;2022-11-15T06:49:23;6.32;;;4.35;;
41677;SDS011;27364;49.026;8.712;2022-11-15T06:51:49;8.90;;;4.68;;
41677;SDS011;27364;49.026;8.712;2022-11-15T06:54:14;9.18;;;4.75;;
41677;SDS011;27364;49.026;8.712;2022-11-15T06:56:40;9.32;;;4.57;;
41677;SDS011;27364;49.026;8.712;2022-11-15T06:59:05;6.15;;;4.30;;
41677;SDS011;27364;49.026;8.712;2022-11-15T07:01:31;7.75;;;4.25;;
41677;SDS011;27364;49.026;8.712;2022-11-15T07:03:56;6.38;;;4.10;;
41677;SDS011;27364;49.026;8.712;2022-11-15T07:06:22;5.82;;;4.00;;
41677;SDS011;27364;49.026;8.712;2022-11-15T07:08:47;5.65;;;4.05;;
41677;SDS011;27364;49.026;8.712;2022-11-15T07:11:13;7.07;;;4.00;;
41677;SDS011;27364;49.026;8.712;2022-11-15T07:13:39;6.60;;;4.03;;
41677;SDS011;27364;49.026;8.712;2022-11-15T07:16:05;5.18;;;3.60;;
41677;SDS011;27364;49.026;8.712;2022-11-15T07:18:36;7.90;;;3.92;;
41677;SDS011;27364;49.026;8.712;2022-11-15T07:21:03;6.22;;;3.60;;
41677;SDS011;27364;49.026;8.712;2022-11-15T07:23:30;5.50;;;3.45;;
41677;SDS011;27364;49.026;8.712;2022-11-15T07:25:57;6.60;;;4.20;;
41677;SDS011;27364;49.026;8.712;2022-11-15T07:28:23;10.90;;;6.70;;
41677;SDS011;27364;49.026;8.712;2022-11-15T07:30:49;11.57;;;8.20;;
41677;SDS011;27364;49.026;8.712;2022-11-15T07:33:15;10.27;;;5.80;;
41677;SDS011;27364;49.026;8.712;2022-11-15T07:35:40;6.72;;;4.65;;
41677;SDS011;27364;49.026;8.712;2022-11-15T07:38:07;8.18;;;4.60;;
41677;SDS011;27364;49.026;8.712;2022-11-15T07:40:33;6.20;;;4.32;;
41677;SDS011;27364;49.026;8.712;2022-11-15T07:42:59;6.35;;;4.68;;
41677;SDS011;27364;49.026;8.712;2022-11-15T07:45:26;10.80;;;4.97;;
41677;SDS011;27364;49.026;8.712;2022-11-15T07:47:51;8.10;;;5.15;;
41677;SDS011;27364;49.026;8.712;2022-11-15T07:50:17;6.85;;;5.28;;
41677;SDS011;27364;49.026;8.712;2022-11-15T07:52:43;8.07;;;5.18;;
41677;SDS011;27364;49.026;8.712;2022-11-15T07:55:09;10.73;;;5.90;;
41677;SDS011;27364;49.026;8.712;2022-11-15T07:57:45;8.00;;;5.38;;
41677;SDS011;27364;49.026;8.712;2022-11-15T08:00:31;9.00;;;6.57;;
41677;SDS011;27364;49.026;8.712;2022-11-15T08:03:31;11.10;;;8.68;;
41677;SDS011;27364;49.026;8.712;2022-11-15T08:06:39;12.60;;;8.18;;
41677;SDS011;27364;49.026;8.712;2022-11-15T08:09:47;10.13;;;6.47;;
41677;SDS011;27364;49.026;8.712;2022-11-15T08:12:45;9.55;;;6.78;;
41677;SDS011;27364;49.026;8.712;2022-11-15T08:15:38;9.13;;;6.22;;
41677;SDS011;27364;49.026;8.712;2022-11-15T08:18:10;10.80;;;6.13;;
41677;SDS011;27364;49.026;8.712;2022-11-15T08:20:38;7.85;;;6.00;;
41677;SDS011;27364;49.026;8.712;2022-11-15T08:23:04;14.63;;;6.22;;
41677;SDS011;27364;49.026;8.712;2022-11-15T08:25:31;7.80;;;5.43;;
41677;SDS011;27364;49.026;8.712;2022-11-15T08:28:02;8.50;;;4.90;;
41677;SDS011;27364;49.026;8.712;2022-11-15T08:30:29;7.70;;;4.72;;
41677;SDS011;27364;49.026;8.712;2022-11-15T08:32:56;9.02;;;4.90;;
41677;SDS011;27364;49.026;8.712;2022-11-15T08:35:23;7.38;;;4.65;;
41677;SDS011;27364;49.026;8.712;2022-11-15T08:37:49;11.13;;;5.00;;
41677;SDS011;27364;49.026;8.712;2022-11-15T08:40:15;9.77;;;5.00;;
41677;SDS011;27364;49.026;8.712;2022-11-15T08:42:41;7.88;;;5.82;;
41677;SDS011;27364;49.026;8.712;2022-11-15T08:45:07;10.13;;;7.03;;
41677;SDS011;27364;49.026;8.712;2022-11-15T08:47:33;7.75;;;6.35;;
41677;SDS011;27364;49.026;8.712;2022-11-15T08:49:59;8.95;;;6.18;;
41677;SDS011;27364;49.026;8.712;2022-11-15T08:52:25;9.15;;;6.13;;
41677;SDS011;27364;49.026;8.712;2022-11-15T08:54:51;7.57;;;5.57;;
41677;SDS011;27364;49.026;8.712;2022-11-15T08:57:16;6.82;;;4.70;;
41677;SDS011;27364;49.026;8.712;2022-11-15T08:59:42;5.88;;;4.07;;
41677;SDS011;27364;49.026;8.712;2022-11-15T09:02:14;6.97;;;4.05;;
41677;SDS011;27364;49.026;8.712;2022-11-15T09:04:41;9.48;;;4.20;;
41677;SDS011;27364;49.026;8.712;2022-11-15T09:07:07;7.68;;;4.70;;
41677;SDS011;27364;49.026;8.712;2022-11-15T09:09:37;10.63;;;5.40;;
41677;SDS011;27364;49.026;8.712;2022-11-15T09:12:03;7.32;;;4.47;;
41677;SDS011;27364;49.026;8.712;2022-11-15T09:14:29;7.43;;;4.32;;
41677;SDS011;27364;49.026;8.712;2022-11-15T09:16:55;8.85;;;4.35;;
41677;SDS011;27364;49.026;8.712;2022-11-15T09:19:20;5.25;;;3.80;;
41677;SDS011;27364;49.026;8.712;2022-11-15T09:21:47;7.93;;;3.88;;
41677;SDS011;27364;49.026;8.712;2022-11-15T09:24:12;7.00;;;3.85;;
41677;SDS011;27364;49.026;8.712;2022-11-15T09:26:38;6.50;;;3.80;;
41677;SDS011;27364;49.026;8.712;2022-11-15T09:29:04;5.47;;;3.80;;
41677;SDS011;27364;49.026;8.712;2022-11-15T09:31:30;4.93;;;3.88;;
41677;SDS011;27364;49.026;8.712;2022-11-15T09:33:55;5.18;;;3.75;;
41677;SDS011;27364;49.026;8.712;2022-11-15T09:36:21;9.20;;;5.30;;
41677;SDS011;27364;49.026;8.712;2022-11-15T09:38:46;8.52;;;4.70;;
41677;SDS011;27364;49.026;8.712;2022-11-15T09:49:22;5.30;;;3.85;;
41677;SDS011;27364;49.026;8.712;2022-11-15T09:51:52;6.43;;;4.25;;
41677;SDS011;27364;49.026;8.712;2022-11-15T09:57:14;10.00;;;4.68;;
41677;SDS011;27364;49.026;8.712;2022-11-15T10:02:13;7.22;;;4.68;;
41677;SDS011;27364;49.026;8.712;2022-11-15T10:04:50;8.00;;;4.90;;
41677;SDS011;27364;49.026;8.712;2022-11-15T10:09:53;8.82;;;4.85;;
41677;SDS011;27364;49.026;8.712;2022-11-15T10:12:22;13.27;;;5.55;;
41677;SDS011;27364;49.026;8.712;2022-11-15T10:14:49;9.82;;;5.30;;
41677;SDS011;27364;49.026;8.712;2022-11-15T10:22:45;8.27;;;5.43;;
41677;SDS011;27364;49.026;8.712;2022-11-15T10:30:47;8.55;;;4.85;;
41677;SDS011;27364;49.026;8.712;2022-11-15T10:35:42;9.45;;;6.28;;
41677;SDS011;27364;49.026;8.712;2022-11-15T10:38:09;10.38;;;5.75;;
41677;SDS011;27364;49.026;8.712;2022-11-15T10:40:37;13.25;;;7.22;;
41677;SDS011;27364;49.026;8.712;2022-11-15T10:43:05;12.07;;;7.25;;
41677;SDS011;27364;49.026;8.712;2022-11-15T10:45:44;11.75;;;6.85;;
41677;SDS011;27364;49.026;8.712;2022-11-15T10:50:39;6.85;;;5.45;;
41677;SDS011;27364;49.026;8.712;2022-11-15T10:55:50;9.55;;;6.43;;
41677;SDS011;27364;49.026;8.712;2022-11-15T11:03:44;8.25;;;5.00;;
41677;SDS011;27364;49.026;8.712;2022-11-15T11:06:22;9.05;;;5.07;;
41677;SDS011;27364;49.026;8.712;2022-11-15T11:11:24;12.68;;;5.45;;
41677;SDS011;27364;49.026;8.712;2022-11-15T11:14:12;6.90;;;4.95;;
41677;SDS011;27364;49.026;8.712;2022-11-15T11:16:43;7.65;;;4.50;;
41677;SDS011;27364;49.026;8.712;2022-11-15T11:19:30;8.00;;;4.78;;
41677;SDS011;27364;49.026;8.712;2022-11-15T11:22:13;7.83;;;4.63;;
41677;SDS011;27364;49.026;8.712;2022-11-15T11:35:50;12.75;;;7.93;;
41677;SDS011;27364;49.026;8.712;2022-11-15T11:38:32;12.07;;;8.40;;
41677;SDS011;27364;49.026;8.712;2022-11-15T11:43:59;13.15;;;8.73;;
41677;SDS011;27364;49.026;8.712;2022-11-15T11:49:03;12.73;;;8.20;;
41677;SDS011;27364;49.026;8.712;2022-11-15T11:57:06;14.98;;;8.10;;
41677;SDS011;27364;49.026;8.712;2022-11-15T11:59:53;11.73;;;7.50;;
41677;SDS011;27364;49.026;8.712;2022-11-15T12:04:57;14.85;;;7.47;;
41677;SDS011;27364;49.026;8.712;2022-11-15T12:07:33;11.95;;;8.27;;
41677;SDS011;27364;49.026;8.712;2022-11-15T12:15:00;9.98;;;7.32;;
41677;SDS011;27364;49.026;8.712;2022-11-15T12:17:38;10.23;;;6.70;;
41677;SDS011;27364;49.026;8.712;2022-11-15T12:20:13;11.75;;;7.63;;
41677;SDS011;27364;49.026;8.712;2022-11-15T12:28:14;9.27;;;5.35;;
41677;SDS011;27364;49.026;8.712;2022-11-15T12:31:05;13.57;;;7.50;;
41677;SDS011;27364;49.026;8.712;2022-11-15T12:36:46;8.98;;;5.65;;
41677;SDS011;27364;49.026;8.712;2022-11-15T12:39:14;9.30;;;5.70;;
41677;SDS011;27364;49.026;8.712;2022-11-15T12:41:41;10.57;;;6.63;;
41677;SDS011;27364;49.026;8.712;2022-11-15T12:44:12;8.90;;;6.47;;
41677;SDS011;27364;49.026;8.712;2022-11-15T13:02:40;10.27;;;5.38;;
41677;SDS011;27364;49.026;8.712;2022-11-15T13:22:43;6.53;;;3.88;;
41677;SDS011;27364;49.026;8.712;2022-11-15T13:25:20;9.30;;;4.15;;
41677;SDS011;27364;49.026;8.712;2022-11-15T13:28:11;6.40;;;3.90;;
41677;SDS011;27364;49.026;8.712;2022-11-15T13:30:52;6.63;;;3.67;;
41677;SDS011;27364;49.026;8.712;2022-11-15T13:33:24;6.93;;;3.60;;
41677;SDS011;27364;49.026;8.712;2022-11-15T13:38:38;8.80;;;4.43;;
41677;SDS011;27364;49.026;8.712;2022-11-15T13:41:45;6.78;;;3.75;;
41677;SDS011;27364;49.026;8.712;2022-11-15T13:43:58;7.32;;;4.65;;
41677;SDS011;27364;49.026;8.712;2022-11-15T13:46:26;6.82;;;3.88;;
41677;SDS011;27364;49.026;8.712;2022-11-15T13:49:03;6.22;;;3.90;;
41677;SDS011;27364;49.026;8.712;2022-11-15T13:56:42;7.57;;;3.92;;
41677;SDS011;27364;49.026;8.712;2022-11-15T13:59:13;7.38;;;3.60;;
41677;SDS011;27364;49.026;8.712;2022-11-15T14:01:46;6.80;;;4.00;;
41677;SDS011;27364;49.026;8.712;2022-11-15T14:04:13;7.90;;;3.42;;
41677;SDS011;27364;49.026;8.712;2022-11-15T14:06:47;6.85;;;3.65;;
41677;SDS011;27364;49.026;8.712;2022-11-15T14:09:23;8.10;;;3.80;;
41677;SDS011;27364;49.026;8.712;2022-11-15T14:11:58;7.65;;;4.38;;
41677;SDS011;27364;49.026;8.712;2022-11-15T14:14:26;9.07;;;4.35;;
41677;SDS011;27364;49.026;8.712;2022-11-15T14:16:54;10.90;;;4.20;;
41677;SDS011;27364;49.026;8.712;2022-11-15T14:24:34;8.20;;;3.95;;
41677;SDS011;27364;49.026;8.712;2022-11-15T14:29:41;6.97;;;3.88;;
41677;SDS011;27364;49.026;8.712;2022-11-15T14:32:14;6.10;;;3.80;;
41677;SDS011;27364;49.026;8.712;2022-11-15T14:34:43;9.40;;;4.15;;
41677;SDS011;27364;49.026;8.712;2022-11-15T14:37:25;6.35;;;4.25;;
41677;SDS011;27364;49.026;8.712;2022-11-15T14:39:59;7.60;;;4.00;;
41677;SDS011;27364;49.026;8.712;2022-11-15T14:42:26;9.05;;;3.85;;
41677;SDS011;27364;49.026;8.712;2022-11-15T14:44:52;7.20;;;4.32;;
41677;SDS011;27364;49.026;8.712;2022-11-15T14:47:18;6.45;;;3.90;;
41677;SDS011;27364;49.026;8.712;2022-11-15T14:49:44;8.55;;;3.90;;
41677;SDS011;27364;49.026;8.712;2022-11-15T14:54:52;7.38;;;4.00;;
41677;SDS011;27364;49.026;8.712;2022-11-15T14:57:19;7.03;;;3.75;;
41677;SDS011;27364;49.026;8.712;2022-11-15T14:59:44;6.57;;;4.18;;
41677;SDS011;27364;49.026;8.712;2022-11-15T15:02:14;6.50;;;4.53;;
41677;SDS011;27364;49.026;8.712;2022-11-15T15:04:45;6.10;;;3.97;;
41677;SDS011;27364;49.026;8.712;2022-11-15T15:07:11;7.18;;;3.72;;
41677;SDS011;27364;49.026;8.712;2022-11-15T15:09:37;7.53;;;3.83;;
41677;SDS011;27364;49.026;8.712;2022-11-15T15:12:03;6.30;;;3.80;;
41677;SDS011;27364;49.026;8.712;2022-11-15T15:14:29;12.85;;;4.50;;
41677;SDS011;27364;49.026;8.712;2022-11-15T15:16:54;7.60;;;4.13;;
41677;SDS011;27364;49.026;8.712;2022-11-15T15:19:20;6.25;;;4.22;;
41677;SDS011;27364;49.026;8.712;2022-11-15T15:21:45;6.32;;;3.83;;
41677;SDS011;27364;49.026;8.712;2022-11-15T15:24:14;8.73;;;5.35;;
41677;SDS011;27364;49.026;8.712;2022-11-15T15:26:40;9.25;;;5.55;;
41677;SDS011;27364;49.026;8.712;2022-11-15T15:29:05;12.93;;;5.43;;
41677;SDS011;27364;49.026;8.712;2022-11-15T15:31:33;9.18;;;4.50;;
41677;SDS011;27364;49.026;8.712;2022-11-15T15:33:59;12.75;;;5.60;;
41677;SDS011;27364;49.026;8.712;2022-11-15T15:36:25;8.30;;;4.68;;
41677;SDS011;27364;49.026;8.712;2022-11-15T15:38:50;8.10;;;3.78;;
41677;SDS011;27364;49.026;8.712;2022-11-15T15:41:17;12.55;;;4.95;;
41677;SDS011;27364;49.026;8.712;2022-11-15T15:43:43;7.88;;;5.70;;
41677;SDS011;27364;49.026;8.712;2022-11-15T15:46:15;10.88;;;6.50;;
41677;SDS011;27364;49.026;8.712;2022-11-15T15:48:42;11.38;;;5.72;;
41677;SDS011;27364;49.026;8.712;2022-11-15T15:51:08;10.18;;;6.10;;
41677;SDS011;27364;49.026;8.712;2022-11-15T15:53:34;6.63;;;4.70;;
41677;SDS011;27364;49.026;8.712;2022-11-15T15:56:00;9.20;;;4.95;;
41677;SDS011;27364;49.026;8.712;2022-11-15T15:58:26;7.90;;;4.80;;
41677;SDS011;27364;49.026;8.712;2022-11-15T16:00:51;8.15;;;4.45;;
41677;SDS011;27364;49.026;8.712;2022-11-15T16:03:17;7.95;;;4.35;;
41677;SDS011;27364;49.026;8.712;2022-11-15T16:05:43;7.10;;;3.78;;
41677;SDS011;27364;49.026;8.712;2022-11-15T16:08:19;14.07;;;4.65;;
41677;SDS011;27364;49.026;8.712;2022-11-15T16:10:46;7.97;;;3.87;;
41677;SDS011;27364;49.026;8.712;2022-11-15T16:13:12;6.25;;;3.38;;
41677;SDS011;27364;49.026;8.712;2022-11-15T16:15:38;7.00;;;3.65;;
41677;SDS011;27364;49.026;8.712;2022-11-15T16:18:04;9.00;;;4.03;;
41677;SDS011;27364;49.026;8.712;2022-11-15T16:20:37;7.13;;;4.53;;
41677;SDS011;27364;49.026;8.712;2022-11-15T16:23:08;7.78;;;4.80;;
41677;SDS011;27364;49.026;8.712;2022-11-15T16:25:45;7.60;;;4.45;;
41677;SDS011;27364;49.026;8.712;2022-11-15T16:30:58;10.00;;;5.10;;
41677;SDS011;27364;49.026;8.712;2022-11-15T16:33:34;7.07;;;4.68;;
41677;SDS011;27364;49.026;8.712;2022-11-15T16:36:00;8.85;;;4.53;;
41677;SDS011;27364;49.026;8.712;2022-11-15T16:38:26;5.72;;;3.80;;
41677;SDS011;27364;49.026;8.712;2022-11-15T16:40:52;6.97;;;4.30;;
41677;SDS011;27364;49.026;8.712;2022-11-15T16:43:17;5.57;;;4.13;;
41677;SDS011;27364;49.026;8.712;2022-11-15T16:45:43;6.35;;;3.78;;
41677;SDS011;27364;49.026;8.712;2022-11-15T16:48:43;6.47;;;3.97;;
41677;SDS011;27364;49.026;8.712;2022-11-15T16:51:01;6.60;;;3.85;;
41677;SDS011;27364;49.026;8.712;2022-11-15T16:53:28;7.50;;;3.67;;
41677;SDS011;27364;49.026;8.712;2022-11-15T16:55:54;7.55;;;3.47;;
41677;SDS011;27364;49.026;8.712;2022-11-15T16:58:20;6.30;;;3.90;;
41677;SDS011;27364;49.026;8.712;2022-11-15T17:00:49;8.13;;;5.57;;
41677;SDS011;27364;49.026;8.712;2022-11-15T17:03:16;9.77;;;6.45;;
41677;SDS011;27364;49.026;8.712;2022-11-15T17:05:42;16.73;;;12.40;;
41677;SDS011;27364;49.026;8.712;2022-11-15T17:08:07;16.23;;;11.93;;
41677;SDS011;27364;49.026;8.712;2022-11-15T17:10:33;9.40;;;6.45;;
41677;SDS011;27364;49.026;8.712;2022-11-15T17:12:58;10.10;;;5.32;;
41677;SDS011;27364;49.026;8.712;2022-11-15T17:15:24;8.38;;;5.60;;
41677;SDS011;27364;49.026;8.712;2022-11-15T17:17:50;8.40;;;5.80;;
41677;SDS011;27364;49.026;8.712;2022-11-15T17:20:17;9.85;;;6.20;;
41677;SDS011;27364;49.026;8.712;2022-11-15T17:22:43;9.30;;;5.82;;
41677;SDS011;27364;49.026;8.712;2022-11-15T17:25:11;9.30;;;6.25;;
41677;SDS011;27364;49.026;8.712;2022-11-15T17:27:37;7.55;;;5.20;;
41677;SDS011;27364;49.026;8.712;2022-11-15T17:30:03;6.82;;;4.90;;
41677;SDS011;27364;49.026;8.712;2022-11-15T17:32:29;8.00;;;5.50;;
41677;SDS011;27364;49.026;8.712;2022-11-15T17:34:55;11.55;;;5.70;;
41677;SDS011;27364;49.026;8.712;2022-11-15T17:37:21;8.48;;;5.68;;
41677;SDS011;27364;49.026;8.712;2022-11-15T17:39:47;9.07;;;6.68;;
41677;SDS011;27364;49.026;8.712;2022-11-15T17:42:12;8.40;;;6.65;;
41677;SDS011;27364;49.026;8.712;2022-11-15T17:44:38;9.88;;;6.97;;
41677;SDS011;27364;49.026;8.712;2022-11-15T17:47:03;11.63;;;6.60;;
41677;SDS011;27364;49.026;8.712;2022-11-15T17:49:29;7.78;;;5.10;;
41677;SDS011;27364;49.026;8.712;2022-11-15T17:51:54;7.88;;;5.10;;